Time;durP1;ratioP1;P1;durP2;ratioP2;P2;SDS_P1;SDS_P2;PMS_P1;PMS_P2;Temp;Humidity;BMP_temperature;BMP_pressure;BME280_temperature;BME280_humidity;BME280_pressure;Samples;Min_cycle;Max_cycle;Signal;HPM_P1;HPM_P2
2023/10/13 00:00:41;;;;;;;;;4.00;4.00;;;;;-143.90;100.00;74779.44;4954819;28;104476;-74
2023/10/13 00:03:14;;;;;;;;;5.50;3.00;;;;;-143.90;100.00;74775.31;4963918;28;102432;-75
2023/10/13 00:05:43;;;;;;;;;3.00;3.00;;;;;-143.90;100.00;74771.16;4961947;28;102258;-75
2023/10/13 00:08:10;;;;;;;;;4.50;4.00;;;;;-143.90;100.00;74767.03;4957767;28;103973;-74
2023/10/13 00:10:36;;;;;;;;;4.75;4.00;;;;;-143.90;100.00;74762.91;4957862;28;102466;-74
2023/10/13 00:13:12;;;;;;;;;5.00;5.00;;;;;-143.90;100.00;74758.75;4951465;28;102490;-74
2023/10/13 00:15:44;;;;;;;;;5.50;4.50;;;;;-143.90;100.00;74758.75;4955743;28;102014;-74
2023/10/13 00:18:14;;;;;;;;;3.00;3.00;;;;;-143.90;100.00;74756.69;4956287;28;104037;-74
2023/10/13 00:20:49;;;;;;;;;5.00;4.00;;;;;-143.90;100.00;74760.81;4960125;28;102215;-74
2023/10/13 00:23:27;;;;;;;;;6.00;5.00;;;;;-143.90;100.00;74777.38;4951055;28;102318;-74
2023/10/13 00:25:58;;;;;;;;;4.50;4.00;;;;;-143.90;100.00;74783.56;4953916;28;102395;-74
2023/10/13 00:28:35;;;;;;;;;5.50;5.50;;;;;-143.90;100.00;74787.69;4956516;28;108771;-75
2023/10/13 00:31:10;;;;;;;;;6.00;5.75;;;;;-143.90;100.00;74793.91;4960971;28;103052;-74
2023/10/13 00:33:38;;;;;;;;;4.75;4.50;;;;;-143.90;100.00;74791.84;4956309;28;102292;-74
2023/10/13 00:36:07;;;;;;;;;7.25;5.75;;;;;-143.90;100.00;74791.84;4957139;28;102148;-75
2023/10/13 00:38:35;;;;;;;;;7.00;5.00;;;;;-143.90;100.00;74804.25;4953965;28;103932;-75
2023/10/13 00:41:07;;;;;;;;;4.25;3.25;;;;;-143.90;100.00;74806.31;4961843;28;104455;-75
2023/10/13 00:43:45;;;;;;;;;3.25;3.00;;;;;-143.90;100.00;74810.44;4953753;28;102388;-75
2023/10/13 00:46:13;;;;;;;;;3.00;3.00;;;;;-143.90;100.00;74812.50;4961421;28;101989;-75
2023/10/13 00:48:43;;;;;;;;;6.50;5.50;;;;;-143.90;100.00;74814.56;4959271;28;103969;-74
2023/10/13 00:51:21;;;;;;;;;5.00;4.25;;;;;-143.90;100.00;74814.56;4970291;28;102073;-75
2023/10/13 00:53:48;;;;;;;;;3.00;2.75;;;;;-143.90;100.00;74818.72;4960923;28;102417;-75
2023/10/13 00:56:19;;;;;;;;;3.25;3.25;;;;;-143.90;100.00;74826.97;4963443;28;102311;-75
2023/10/13 00:58:46;;;;;;;;;4.75;3.00;;;;;-143.90;100.00;74824.91;4976219;28;104122;-75
2023/10/13 01:01:18;;;;;;;;;5.25;4.00;;;;;-143.90;100.00;74831.13;4955000;28;102859;-75
2023/10/13 01:03:59;;;;;;;;;4.50;4.50;;;;;-143.90;100.00;74829.03;4960327;28;101949;-74
2023/10/13 01:06:29;;;;;;;;;3.00;3.00;;;;;-143.90;100.00;74826.97;4861588;28;102430;-76
2023/10/13 01:09:11;;;;;;;;;3.00;3.00;;;;;-143.90;100.00;74833.19;4958117;28;108974;-75
2023/10/13 01:11:43;;;;;;;;;3.00;3.00;;;;;-143.90;100.00;74841.44;4958850;28;102433;-75
2023/10/13 01:14:12;;;;;;;;;2.25;2.00;;;;;-143.90;100.00;74853.84;4960915;28;104992;-75
2023/10/13 01:16:43;;;;;;;;;1.25;1.25;;;;;-143.90;100.00;74853.84;4962681;28;102485;-75
2023/10/13 01:19:12;;;;;;;;;3.25;2.50;;;;;-143.90;100.00;74853.84;4963883;28;103949;-75
2023/10/13 01:21:44;;;;;;;;;4.00;4.00;;;;;-143.90;100.00;74866.25;4961697;28;103233;-75
2023/10/13 01:24:13;;;;;;;;;2.50;2.00;;;;;-143.90;100.00;74862.13;4967400;28;102317;-75
2023/10/13 01:26:41;;;;;;;;;2.00;2.00;;;;;-143.90;100.00;74868.31;4961946;28;102036;-74
2023/10/13 01:29:18;;;;;;;;;3.00;3.00;;;;;-143.90;100.00;74874.53;4960398;28;103992;-74
2023/10/13 01:31:46;;;;;;;;;2.75;2.00;;;;;-143.90;100.00;74876.59;4959382;28;102335;-74
2023/10/13 01:34:24;;;;;;;;;3.00;3.00;;;;;-143.90;100.00;74876.59;4955024;28;102473;-74
2023/10/13 01:36:53;;;;;;;;;6.00;5.25;;;;;-143.90;100.00;74876.59;4954345;28;102066;-75
2023/10/13 01:39:21;;;;;;;;;7.50;6.00;;;;;-143.90;100.00;74874.53;4951861;28;104026;-75
2023/10/13 01:41:55;;;;;;;;;7.00;6.00;;;;;-143.90;100.00;74874.53;4954075;28;102498;-75
2023/10/13 01:44:30;;;;;;;;;4.00;3.50;;;;;-143.90;100.00;74882.78;4961637;28;102920;-75
2023/10/13 01:47:06;;;;;;;;;5.00;4.50;;;;;-143.90;100.00;74882.78;4961707;28;102001;-75
2023/10/13 01:49:42;;;;;;;;;7.00;5.50;;;;;-143.90;100.00;74889.00;4959242;28;104011;-75
2023/10/13 01:52:15;;;;;;;;;2.75;2.25;;;;;-143.90;100.00;74886.94;4960366;28;102015;-75
2023/10/13 01:54:48;;;;;;;;;4.00;4.00;;;;;-143.90;100.00;74884.88;4963713;28;102427;-75
2023/10/13 01:57:19;;;;;;;;;4.00;3.50;;;;;-143.90;100.00;74886.94;4960825;28;102488;-75
2023/10/13 01:59:47;;;;;;;;;4.25;3.75;;;;;-143.90;100.00;74876.59;4964096;28;104115;-75
2023/10/13 02:02:28;;;;;;;;;3.75;3.00;;;;;-143.90;100.00;74884.88;4970858;28;102043;-75
2023/10/13 02:05:00;;;;;;;;;3.75;3.75;;;;;-143.90;100.00;74886.94;4968980;28;103185;-75
2023/10/13 02:07:30;;;;;;;;;2.75;2.75;;;;;-143.90;100.00;74886.94;4960609;28;102294;-76
2023/10/13 02:09:57;;;;;;;;;3.00;2.50;;;;;-143.90;100.00;74880.72;4966619;28;103990;-76
2023/10/13 02:12:36;;;;;;;;;5.25;3.00;;;;;-143.90;100.00;74878.66;4963335;28;102831;-74
2023/10/13 02:15:04;;;;;;;;;3.00;3.00;;;;;-143.90;100.00;74878.66;4963372;28;102049;-74
2023/10/13 02:17:41;;;;;;;;;2.75;2.75;;;;;-143.90;100.00;74874.53;4964749;28;102228;-74
2023/10/13 02:20:14;;;;;;;;;3.00;2.50;;;;;-143.90;100.00;74876.59;4961345;28;103906;-75
2023/10/13 02:22:48;;;;;;;;;1.00;1.00;;;;;-143.90;100.00;74878.66;4960227;28;102658;-74
2023/10/13 02:25:34;;;;;;;;;4.00;4.00;;;;;-143.90;100.00;74882.78;4955203;28;102505;-74
2023/10/13 02:28:02;;;;;;;;;4.25;4.00;;;;;-143.90;100.00;74886.94;4965663;28;102004;-74
2023/10/13 02:30:29;;;;;;;;;3.50;3.25;;;;;-143.90;100.00;74889.00;4957622;28;104153;-74
2023/10/13 02:32:57;;;;;;;;;5.25;5.00;;;;;-143.90;100.00;74889.00;4964890;28;104920;-75
2023/10/13 02:35:30;;;;;;;;;4.75;4.00;;;;;-143.90;100.00;74886.94;4959596;28;102816;-74
2023/10/13 02:38:05;;;;;;;;;5.75;4.75;;;;;-143.90;100.00;74889.00;4959076;28;102366;-74
2023/10/13 02:40:35;;;;;;;;;4.00;3.25;;;;;-143.90;100.00;74886.94;4961941;28;107940;-75
2023/10/13 02:43:04;;;;;;;;;4.25;3.50;;;;;-143.90;100.00;74886.94;4964487;28;102928;-75
2023/10/13 02:45:32;;;;;;;;;3.75;2.75;;;;;-143.90;100.00;74889.00;4960949;28;102491;-74
2023/10/13 02:48:17;;;;;;;;;4.00;4.00;;;;;-143.90;100.00;74889.00;4962314;28;102491;-75
2023/10/13 02:50:45;;;;;;;;;2.75;2.75;;;;;-143.90;100.00;74891.06;4960977;28;104107;-74
2023/10/13 02:53:18;;;;;;;;;6.00;6.00;;;;;-143.90;100.00;74889.00;4959633;28;102196;-75
2023/10/13 02:55:52;;;;;;;;;3.00;3.00;;;;;-143.90;100.00;74891.06;4961276;28;102032;-74
2023/10/13 02:58:20;;;;;;;;;4.50;4.00;;;;;-143.90;100.00;74886.94;4959388;28;102515;-74
2023/10/13 03:00:47;;;;;;;;;8.50;8.50;;;;;-143.90;100.00;74884.88;4961376;28;104321;-74
2023/10/13 03:03:19;;;;;;;;;4.75;4.00;;;;;-143.90;100.00;74891.06;4958145;28;102217;-74
2023/10/13 03:05:46;;;;;;;;;4.25;4.00;;;;;-143.90;100.00;74893.13;4967942;28;103429;-75
2023/10/13 03:08:17;;;;;;;;;4.00;4.00;;;;;-143.90;100.00;74897.25;4963101;28;102495;-75
2023/10/13 03:10:50;;;;;;;;;4.75;3.50;;;;;-143.90;100.00;74895.19;4962682;28;103489;-75
2023/10/13 03:13:16;;;;;;;;;3.75;3.75;;;;;-143.90;100.00;74897.25;4961641;28;103577;-75
2023/10/13 03:15:47;;;;;;;;;2.75;2.75;;;;;-143.90;100.00;74899.34;4956962;28;102381;-75
2023/10/13 03:18:18;;;;;;;;;5.25;3.75;;;;;-143.90;100.00;74903.47;4965009;28;102221;-75
2023/10/13 03:20:50;;;;;;;;;3.00;3.00;;;;;-143.90;100.00;74901.41;4954900;28;104133;-74
2023/10/13 03:23:17;;;;;;;;;6.00;3.75;;;;;-143.90;100.00;74897.25;4959675;28;103537;-75
2023/10/13 03:25:43;;;;;;;;;4.00;4.00;;;;;-143.90;100.00;74895.19;4958700;28;102005;-74
2023/10/13 03:28:16;;;;;;;;;3.00;2.25;;;;;-143.90;100.00;74886.94;4966601;28;102335;-74
2023/10/13 03:30:47;;;;;;;;;3.50;3.50;;;;;-143.90;100.00;74893.13;4961762;28;104839;-76
2023/10/13 03:33:25;;;;;;;;;2.25;2.25;;;;;-143.90;100.00;74882.78;4960494;28;102382;-76
2023/10/13 03:35:59;;;;;;;;;3.00;3.00;;;;;-143.90;100.00;74882.78;4966019;28;102312;-76
2023/10/13 03:38:27;;;;;;;;;4.00;3.00;;;;;-143.90;100.00;74878.66;4954461;28;102761;-76
2023/10/13 03:41:07;;;;;;;;;5.75;5.00;;;;;-143.90;100.00;74874.53;4956947;28;105787;-74
2023/10/13 03:43:52;;;;;;;;;5.00;5.00;;;;;-143.90;100.00;74872.47;4950176;28;102785;-74
2023/10/13 03:46:21;;;;;;;;;5.75;4.00;;;;;-143.90;100.00;74870.38;4953974;28;102039;-74
2023/10/13 03:48:52;;;;;;;;;6.50;5.00;;;;;-143.90;100.00;74870.38;4962900;28;102376;-74
2023/10/13 03:51:19;;;;;;;;;2.25;2.00;;;;;-143.90;100.00;74862.13;4956092;28;104231;-75
2023/10/13 03:53:52;;;;;;;;;4.50;4.00;;;;;-143.90;100.00;74862.13;4957958;28;102080;-75
2023/10/13 03:56:26;;;;;;;;;5.00;3.75;;;;;-143.90;100.00;74860.06;4957864;28;102054;-75
2023/10/13 03:59:04;;;;;;;;;2.00;1.75;;;;;-143.90;100.00;74862.13;4962899;28;102230;-75
2023/10/13 04:04:12;;;;;;;;;5.00;4.75;;;;;-143.90;100.00;74858.00;4956322;28;102346;-76
2023/10/13 04:17:29;;;;;;;;;5.00;4.00;;;;;-143.90;100.00;74855.91;4956491;28;102942;-75
2023/10/13 04:25:38;;;;;;;;;3.75;3.75;;;;;-143.90;100.00;74841.44;4970083;28;102400;-75
2023/10/13 04:36:13;;;;;;;;;5.50;5.00;;;;;-143.90;100.00;74843.53;4952720;28;102253;-74
2023/10/13 04:39:29;;;;;;;;;3.75;3.75;;;;;-143.90;100.00;74853.84;4949568;28;102194;-75
2023/10/13 06:30:07;;;;;;;;;1.50;1.50;;;;;-143.90;100.00;74777.38;4954306;28;103777;-75
2023/10/13 06:32:34;;;;;;;;;2.00;1.00;;;;;-143.90;100.00;74758.75;4964474;28;108892;-75
2023/10/13 06:35:07;;;;;;;;;2.25;2.25;;;;;-143.90;100.00;74756.69;4958747;28;102280;-75
2023/10/13 06:37:36;;;;;;;;;2.00;2.00;;;;;-143.90;100.00;74744.28;4960427;28;102322;-75
2023/10/13 06:40:33;;;;;;;;;2.00;2.00;;;;;-143.90;100.00;74731.88;4975479;28;104229;-76
2023/10/13 06:43:16;;;;;;;;;5.25;4.00;;;;;-143.90;100.00;74725.69;4965448;28;104092;-75
2023/10/13 06:45:56;;;;;;;;;2.50;2.00;;;;;-143.90;100.00;74721.56;4960820;28;104655;-74
2023/10/13 06:48:25;;;;;;;;;3.00;3.00;;;;;-143.90;100.00;74713.28;4945326;28;102655;-75
2023/10/13 06:50:55;;;;;;;;;4.25;3.00;;;;;-143.90;100.00;74715.34;4937091;28;102284;-74
2023/10/13 06:53:22;;;;;;;;;4.00;3.50;;;;;-143.90;100.00;74717.41;4926358;28;104248;-74
2023/10/13 06:55:52;;;;;;;;;7.00;6.00;;;;;-143.90;100.00;74719.47;4923373;28;101994;-75
2023/10/13 06:58:23;;;;;;;;;7.75;6.75;;;;;-143.90;100.00;74717.41;4941933;28;102402;-75
2023/10/13 07:00:55;;;;;;;;;6.00;6.00;;;;;-143.90;100.00;74719.47;4935473;28;101922;-75
2023/10/13 07:03:23;;;;;;;;;6.00;5.25;;;;;-143.90;100.00;74715.34;4934482;28;104204;-75
2023/10/13 07:05:50;;;;;;;;;7.50;7.00;;;;;-143.90;100.00;74709.16;4932514;28;101913;-75
2023/10/13 07:08:19;;;;;;;;;5.50;5.50;;;;;-143.90;100.00;74700.88;4928882;28;102265;-74
2023/10/13 07:11:13;;;;;;;;;4.50;3.25;;;;;-143.90;100.00;74692.63;4926653;28;102005;-74
2023/10/13 07:13:47;;;;;;;;;5.75;4.25;;;;;-143.90;100.00;74676.06;4933650;28;108797;-75
2023/10/13 07:16:14;;;;;;;;;6.00;5.00;;;;;-143.90;100.00;74669.88;4927572;28;102385;-74
2023/10/13 07:18:55;;;;;;;;;4.50;3.25;;;;;-143.90;100.00;74655.41;4939437;28;101827;-74
2023/10/13 07:21:30;;;;;;;;;7.00;6.00;;;;;-143.90;100.00;74651.28;4934226;28;102309;-74
2023/10/13 07:24:07;;;;;;;;;3.75;3.75;;;;;-143.90;100.00;74647.13;4927830;28;103986;-75
2023/10/13 07:26:42;;;;;;;;;4.25;4.25;;;;;-143.90;100.00;74638.88;4929942;28;102476;-75
2023/10/13 07:29:10;;;;;;;;;6.75;6.75;;;;;-143.90;100.00;74630.59;4930115;28;101984;-74
2023/10/13 07:31:39;;;;;;;;;9.75;8.25;;;;;-143.90;100.00;74622.34;4919261;28;104443;-74
2023/10/13 07:34:12;;;;;;;;;8.25;7.50;;;;;-143.90;100.00;74616.13;4935515;28;103993;-73
2023/10/13 07:36:43;;;;;;;;;6.25;6.25;;;;;-143.90;100.00;74614.06;4914459;28;102156;-74
2023/10/13 07:39:23;;;;;;;;;8.75;8.75;;;;;-143.90;100.00;74605.78;4922557;28;102013;-75
2023/10/13 07:41:54;;;;;;;;;5.50;5.00;;;;;-143.90;100.00;74605.78;4925424;28;102181;-74
2023/10/13 07:44:31;;;;;;;;;12.25;10.00;;;;;-143.90;100.00;74609.94;4931638;28;103997;-73
2023/10/13 07:46:59;;;;;;;;;7.25;6.50;;;;;-143.90;100.00;74601.66;4928170;28;102341;-75
2023/10/13 07:49:39;;;;;;;;;10.00;8.25;;;;;-143.90;100.00;74603.72;4957860;28;103699;-74
2023/10/13 07:55:10;;;;;;;;;7.00;6.00;;;;;-143.90;100.00;74593.38;4961015;28;103984;-74
2023/10/13 07:57:53;;;;;;;;;8.50;8.00;;;;;-143.90;100.00;74572.72;4961313;28;102248;-73
2023/10/13 08:04:04;;;;;;;;;8.00;6.50;;;;;-143.90;100.00;74564.44;4950877;28;102200;-74
2023/10/13 08:06:06;;;;;;;;;8.00;8.00;;;;;-143.90;100.00;74560.31;4959258;28;104139;-75
2023/10/13 08:08:39;;;;;;;;;11.75;9.50;;;;;-143.90;100.00;74554.13;4958965;28;102791;-74
2023/10/13 08:11:11;;;;;;;;;8.75;8.00;;;;;-143.90;100.00;74541.72;4955631;28;102387;-75
2023/10/13 08:13:40;;;;;;;;;7.00;7.00;;;;;-143.90;100.00;74531.38;4965745;28;102073;-74
2023/10/13 08:16:47;;;;;;;;;9.00;7.33;;;;;-143.90;100.00;74525.19;4958115;28;105349;-74
2023/10/13 08:19:27;;;;;;;;;7.00;7.00;;;;;-143.90;100.00;74508.63;4958992;28;102141;-74
2023/10/13 08:22:14;;;;;;;;;8.00;7.00;;;;;-143.90;100.00;74516.91;4960329;28;102107;-74
2023/10/13 08:32:56;;;;;;;;;9.33;8.00;;;;;-143.90;100.00;74481.78;4958018;28;102247;-75
2023/10/13 08:37:59;;;;;;;;;8.00;7.33;;;;;-143.90;100.00;74461.09;4955528;28;104014;-74
2023/10/13 08:40:55;;;;;;;;;10.33;9.33;;;;;-143.90;100.00;74444.56;4963888;28;102198;-74
2023/10/13 08:43:23;;;;;;;;;7.00;7.00;;;;;-143.90;100.00;74423.88;4955332;28;102587;-75
2023/10/13 08:48:26;;;;;;;;;6.33;6.00;;;;;-143.90;100.00;74390.81;4939319;28;104204;-73
2023/10/13 08:50:52;;;;;;;;;10.33;9.00;;;;;-143.90;100.00;74397.03;4942977;28;102279;-73
2023/10/13 09:09:27;;;;;;;;;6.00;5.00;;;;;-143.90;99.23;74353.63;4934680;28;104142;-73
2023/10/13 09:12:35;;;;;;;;;6.67;5.67;;;;;-143.90;98.56;74332.94;4930779;28;102424;-74
2023/10/13 09:14:58;;;;;;;;;6.00;6.00;;;;;-143.90;97.34;74341.22;4934888;28;102058;-75
2023/10/13 09:17:35;;;;;;;;;6.33;6.33;;;;;-143.90;96.64;74345.34;4935460;28;102399;-75
2023/10/13 09:25:38;;;;;;;;;6.33;5.67;;;;;-143.90;96.00;74287.47;4932910;28;102030;-74
2023/10/13 09:28:15;;;;;;;;;7.00;6.33;;;;;-143.90;95.12;74254.41;4937480;28;102888;-75
2023/10/13 09:30:46;;;;;;;;;7.00;6.33;;;;;-143.90;91.93;74235.78;4936026;28;108003;-76
2023/10/13 09:33:15;;;;;;;;;6.67;5.33;;;;;-143.90;90.85;74237.88;4941313;28;102327;-75
2023/10/13 09:35:49;;;;;;;;;4.67;4.67;;;;;-143.90;89.39;74213.06;4940847;28;102516;-75
2023/10/13 09:38:16;;;;;;;;;5.00;4.00;;;;;-143.90;91.54;74196.53;4940426;28;102292;-74
2023/10/13 09:40:50;;;;;;;;;4.00;4.00;;;;;-143.90;89.14;74192.41;4940332;28;104104;-74
2023/10/13 09:43:18;;;;;;;;;6.00;6.00;;;;;-143.90;88.95;74186.19;4928753;28;102301;-75
2023/10/13 09:46:01;;;;;;;;;7.00;6.67;;;;;-143.90;87.35;74177.94;4937317;28;102029;-75
2023/10/13 09:48:32;;;;;;;;;6.00;6.00;;;;;-143.90;85.47;74175.84;4956403;28;102398;-75
2023/10/13 09:51:08;;;;;;;;;6.67;6.67;;;;;-143.90;86.21;74171.72;4955739;28;104007;-75
2023/10/13 09:53:39;;;;;;;;;6.00;6.00;;;;;-143.90;86.89;74171.72;4959143;28;102079;-76
2023/10/13 09:56:30;;;;;;;;;6.00;4.33;;;;;-143.90;86.19;74169.66;4955833;28;102434;-75
2023/10/13 09:59:10;;;;;;;;;4.33;4.33;;;;;-143.90;84.91;74155.19;4962834;28;102468;-74
2023/10/13 10:01:50;;;;;;;;;6.67;6.67;;;;;-143.90;82.70;74167.59;4950118;28;108727;-76
2023/10/13 10:04:19;;;;;;;;;7.00;6.00;;;;;-143.90;82.89;74157.25;4955596;28;102164;-75
2023/10/13 10:06:56;;;;;;;;;9.67;7.00;;;;;-143.90;83.51;74153.13;4954110;28;102234;-76
2023/10/13 10:09:39;;;;;;;;;8.67;8.67;;;;;-143.90;80.54;74167.59;4953313;28;102333;-75
2023/10/13 10:12:33;;;;;;;;;7.33;7.00;;;;;-143.90;82.78;74146.91;4948955;28;108786;-76
2023/10/13 10:15:06;;;;;;;;;7.33;7.00;;;;;-143.90;81.62;74138.66;4954010;28;102045;-75
2023/10/13 10:17:43;;;;;;;;;7.33;7.00;;;;;-143.90;81.06;74118.00;4958098;28;102377;-75
2023/10/13 10:20:19;;;;;;;;;8.00;6.67;;;;;-143.90;83.01;74091.13;4962418;28;102398;-74
2023/10/13 10:23:04;;;;;;;;;8.33;8.33;;;;;-143.90;79.94;74086.97;4963876;28;104107;-75
2023/10/13 10:25:35;;;;;;;;;9.33;7.00;;;;;-143.90;81.28;74084.91;4961881;28;102027;-76
2023/10/13 10:28:07;;;;;;;;;7.33;7.33;;;;;-143.90;79.09;74070.44;4964986;28;101988;-75
2023/10/13 10:30:38;;;;;;;;;8.00;8.00;;;;;-143.90;82.05;74072.50;4964498;28;102439;-74
2023/10/13 10:33:12;;;;;;;;;7.00;7.00;;;;;-143.90;77.40;74058.06;4964726;28;103961;-75
2023/10/13 10:35:42;;;;;;;;;8.00;7.67;;;;;-143.90;79.95;74022.91;4961507;28;102483;-75
2023/10/13 10:38:23;;;;;;;;;3.67;3.67;;;;;-143.90;76.56;74000.19;4965932;28;102033;-74
2023/10/13 10:40:56;;;;;;;;;8.00;8.00;;;;;-143.90;75.40;74010.50;4957429;28;102550;-75
2023/10/13 10:43:26;;;;;;;;;8.00;8.00;;;;;-143.90;75.62;74010.50;4962484;28;109058;-74
2023/10/13 10:46:02;;;;;;;;;8.00;8.00;;;;;-143.90;77.56;74010.50;4949422;28;102399;-73
2023/10/13 10:48:34;;;;;;;;;5.67;5.67;;;;;-143.90;76.08;73998.13;4967388;28;102289;-74
2023/10/13 10:51:13;;;;;;;;;6.67;6.67;;;;;-143.90;78.40;73989.84;4964217;28;102556;-74
2023/10/13 10:53:44;;;;;;;;;7.67;7.00;;;;;-143.90;76.37;73989.84;4964651;28;104100;-75
2023/10/13 10:56:24;;;;;;;;;5.67;5.33;;;;;-143.90;76.77;73969.19;4966298;28;102109;-74
2023/10/13 10:58:56;;;;;;;;;5.67;5.67;;;;;-143.90;75.29;73954.72;4959650;28;102380;-75
2023/10/13 11:01:24;;;;;;;;;6.00;6.00;;;;;-143.90;75.27;73962.97;4966471;28;102265;-74
2023/10/13 11:04:07;;;;;;;;;7.33;6.67;;;;;-143.90;74.29;73952.63;4960358;28;104100;-75
2023/10/13 11:06:41;;;;;;;;;8.00;7.00;;;;;-143.90;75.55;73948.50;4964314;28;102269;-74
2023/10/13 11:09:18;;;;;;;;;7.00;5.67;;;;;-143.90;73.19;73977.44;4963508;28;102400;-75
2023/10/13 11:11:52;;;;;;;;;6.33;5.00;;;;;-143.90;73.68;73977.44;4966281;28;101895;-74
2023/10/13 11:14:26;;;;;;;;;7.67;6.67;;;;;-143.90;75.06;73958.84;4954534;28;103983;-74
2023/10/13 11:16:59;;;;;;;;;6.33;6.33;;;;;-143.90;73.46;73969.19;4965147;28;102386;-75
2023/10/13 11:19:37;;;;;;;;;7.00;6.00;;;;;-143.90;74.77;73985.72;4953640;28;102282;-77
2023/10/13 11:22:41;;;;;;;;;6.33;5.67;;;;;-143.90;75.34;73993.97;4963808;28;101978;-76
2023/10/13 11:25:11;;;;;;;;;6.67;5.67;;;;;-143.90;75.69;73969.19;4957331;28;108564;-76
2023/10/13 11:30:25;;;;;;;;;6.67;6.67;;;;;-143.90;74.29;73950.56;4956472;28;102070;-77
2023/10/13 11:32:59;;;;;;;;;6.67;6.67;;;;;-143.90;73.99;73940.25;4968926;28;102349;-75
2023/10/13 11:35:38;;;;;;;;;7.33;6.33;;;;;-143.90;72.91;73927.84;4955927;28;108731;-75
2023/10/13 11:38:15;;;;;;;;;6.67;6.67;;;;;-143.90;73.58;73929.91;4958768;28;101994;-76
2023/10/13 11:40:59;;;;;;;;;7.00;6.33;;;;;-143.90;71.50;73919.56;4956086;28;102241;-76
2023/10/13 11:43:26;;;;;;;;;6.67;6.33;;;;;-143.90;73.00;73913.38;4959988;28;102265;-81
2023/10/13 11:46:12;;;;;;;;;7.00;6.67;;;;;-143.90;72.30;73913.38;4964005;28;104187;-78
2023/10/13 11:48:46;;;;;;;;;5.00;5.00;;;;;-143.90;72.73;73907.16;4952963;28;102330;-77
2023/10/13 11:51:23;;;;;;;;;5.33;5.33;;;;;-143.90;72.91;73929.91;4963834;28;102409;-75
2023/10/13 11:53:53;;;;;;;;;9.00;6.67;;;;;-143.90;72.16;73938.19;4958398;28;102205;-76
2023/10/13 11:56:20;;;;;;;;;6.00;6.00;;;;;-143.90;72.28;73944.38;4975044;28;104320;-75
2023/10/13 11:58:47;;;;;;;;;5.00;4.00;;;;;-143.90;74.25;73944.38;4965468;28;102171;-78
2023/10/13 12:11:50;;;;;;;;;8.33;7.00;;;;;-143.90;74.84;73946.44;4962833;28;102272;-75
2023/10/13 12:16:50;;;;;;;;;5.00;4.00;;;;;-143.90;73.46;73913.38;4959031;28;103424;-75
2023/10/13 12:19:23;;;;;;;;;7.00;6.00;;;;;-143.90;73.72;73919.56;4959882;28;102464;-77
2023/10/13 12:21:57;;;;;;;;;6.33;5.00;;;;;-143.90;73.53;73905.09;4959089;28;102316;-76
2023/10/13 12:27:18;;;;;;;;;7.00;6.00;;;;;-143.90;73.55;73915.44;4951030;28;108522;-76
2023/10/13 12:29:52;;;;;;;;;7.00;6.00;;;;;-143.90;73.60;73931.97;4957657;28;102365;-77
2023/10/13 12:32:30;;;;;;;;;6.00;6.00;;;;;-143.90;74.32;73944.38;4958420;28;102719;-77
2023/10/13 12:35:27;;;;;;;;;7.00;6.67;;;;;-143.90;74.81;73944.38;4961438;28;101962;-79
2023/10/13 12:48:59;;;;;;;;;0.67;0.00;;;;;-143.90;75.56;73940.25;4970009;28;108879;-78
2023/10/13 12:54:23;;;;;;;;;8.00;7.67;;;;;-143.90;75.23;73948.50;4947813;28;102684;-81
2023/10/13 12:56:56;;;;;;;;;6.67;5.33;;;;;-143.90;76.64;73936.09;4956000;28;102217;-78
2023/10/13 12:59:26;;;;;;;;;8.00;6.33;;;;;-143.90;75.81;73931.97;4935234;28;104197;-80
2023/10/13 13:01:53;;;;;;;;;8.33;7.33;;;;;-143.90;75.61;73923.72;4965161;28;102255;-78
2023/10/13 13:04:21;;;;;;;;;6.33;6.33;;;;;-143.90;75.44;73903.03;4957821;28;102287;-78
2023/10/13 13:06:51;;;;;;;;;6.00;5.67;;;;;-143.90;77.38;73872.03;4963365;28;102254;-76
2023/10/13 13:09:25;;;;;;;;;6.00;5.33;;;;;-143.90;75.27;73865.84;4961736;28;104126;-75
2023/10/13 13:11:57;;;;;;;;;5.00;4.33;;;;;-143.90;72.53;73863.78;4964085;28;102442;-76
2023/10/13 13:14:30;;;;;;;;;6.00;5.00;;;;;-143.90;72.09;73857.56;4961090;28;102457;-76
2023/10/13 13:17:07;;;;;;;;;6.00;5.00;;;;;-143.90;72.88;73874.09;4969752;28;102603;-79
2023/10/13 13:19:44;;;;;;;;;4.00;4.00;;;;;-143.90;73.54;73878.25;4944841;28;108620;-76
2023/10/13 13:22:13;;;;;;;;;6.00;4.67;;;;;-143.90;73.70;73869.97;4960208;28;102067;-76
2023/10/13 13:24:43;;;;;;;;;6.67;5.33;;;;;-143.90;74.50;73865.84;4962838;28;102070;-75
2023/10/13 13:27:14;;;;;;;;;4.00;4.00;;;;;-143.90;75.20;73865.84;4960797;28;102128;-78
2023/10/13 13:29:41;;;;;;;;;5.33;4.33;;;;;-143.90;75.94;73867.91;4962110;28;104000;-78
2023/10/13 13:32:17;;;;;;;;;5.00;4.33;;;;;-143.90;74.70;73878.25;4960641;28;102353;-76
2023/10/13 13:34:44;;;;;;;;;5.00;5.00;;;;;-143.90;75.09;73894.78;4964112;28;102062;-74
2023/10/13 13:37:14;;;;;;;;;3.00;1.00;;;;;-143.90;75.47;73898.91;4965681;28;102246;-75
2023/10/13 13:39:45;;;;;;;;;4.67;4.00;;;;;-143.90;75.85;73919.56;4961989;28;104941;-75
2023/10/13 13:42:17;;;;;;;;;5.67;4.00;;;;;-143.90;75.99;73913.38;4954193;28;102951;-76
2023/10/13 13:44:46;;;;;;;;;5.67;5.33;;;;;-143.90;76.01;73925.78;4963594;28;102230;-77
2023/10/13 13:47:13;;;;;;;;;6.00;4.00;;;;;-143.90;76.75;73919.56;4965124;28;102585;-77
2023/10/13 13:49:46;;;;;;;;;5.33;4.00;;;;;-143.90;76.73;73911.31;4961273;28;103975;-74
2023/10/13 13:52:21;;;;;;;;;4.00;3.67;;;;;-143.90;76.22;73888.56;4955884;28;103785;-77
2023/10/13 13:54:48;;;;;;;;;2.67;2.67;;;;;-143.90;77.60;73874.09;4965258;28;102523;-75
2023/10/13 13:57:14;;;;;;;;;1.67;1.67;;;;;-143.90;75.76;73847.25;4962881;28;102268;-75
2023/10/13 13:59:45;;;;;;;;;3.00;1.33;;;;;-143.90;76.94;73832.78;4952996;28;104084;-74
2023/10/13 14:02:20;;;;;;;;;4.00;2.00;;;;;-143.90;74.02;73807.97;4964392;28;102322;-75
2023/10/13 14:04:50;;;;;;;;;2.67;2.33;;;;;-143.90;74.16;73791.44;4959422;28;103601;-75
2023/10/13 14:07:19;;;;;;;;;2.00;2.00;;;;;-143.90;74.88;73781.09;4964549;28;103427;-74
2023/10/13 14:09:51;;;;;;;;;2.00;2.00;;;;;-143.90;73.24;73801.78;4961064;28;104312;-75
2023/10/13 14:12:29;;;;;;;;;2.00;2.00;;;;;-143.90;73.65;73801.78;4959317;28;102167;-75
2023/10/13 14:14:57;;;;;;;;;4.00;3.00;;;;;-143.90;73.63;73814.16;4963450;28;102400;-76
2023/10/13 14:17:28;;;;;;;;;3.00;2.00;;;;;-143.90;73.73;73824.50;4964545;28;102619;-77
2023/10/13 14:19:58;;;;;;;;;2.33;2.00;;;;;-143.90;74.14;73832.78;4954062;28;103892;-76
2023/10/13 14:22:25;;;;;;;;;3.67;1.33;;;;;-143.90;74.54;73828.63;4964120;28;102443;-74
2023/10/13 14:24:55;;;;;;;;;2.00;2.00;;;;;-143.90;75.57;73828.63;4950164;28;104191;-76
2023/10/13 14:27:25;;;;;;;;;4.00;2.67;;;;;-143.90;75.16;73824.50;4966691;28;102303;-77
2023/10/13 14:29:56;;;;;;;;;3.33;3.00;;;;;-143.90;75.17;73824.50;4955789;28;110050;-76
2023/10/13 14:32:24;;;;;;;;;3.00;2.00;;;;;-143.90;74.48;73822.44;4951621;28;104796;-74
2023/10/13 14:34:54;;;;;;;;;2.00;2.00;;;;;-143.90;75.48;73799.69;4946361;28;103296;-74
2023/10/13 14:37:30;;;;;;;;;3.67;2.33;;;;;-143.90;74.49;73793.50;4963837;28;103361;-74
2023/10/13 14:39:59;;;;;;;;;2.00;1.00;;;;;-143.90;76.05;73791.44;4958950;28;108841;-77
2023/10/13 14:42:27;;;;;;;;;1.33;1.33;;;;;-143.90;75.92;73783.16;4961815;28;102613;-75
2023/10/13 14:44:57;;;;;;;;;1.33;1.33;;;;;-143.90;76.12;73799.69;4958627;28;103695;-75
2023/10/13 14:47:24;;;;;;;;;2.00;2.00;;;;;-143.90;73.86;73812.09;4948710;28;102303;-78
2023/10/13 14:49:59;;;;;;;;;3.67;1.00;;;;;-143.90;74.42;73828.63;4966455;28;103931;-78
2023/10/13 14:52:26;;;;;;;;;2.00;2.00;;;;;-143.90;75.95;73836.91;4960385;28;102441;-76
2023/10/13 14:54:56;;;;;;;;;2.33;2.33;;;;;-143.90;75.49;73849.31;4974762;28;103992;-76
2023/10/13 14:57:25;;;;;;;;;4.00;2.00;;;;;-143.90;77.29;73865.84;4961745;28;102097;-77
2023/10/13 14:59:53;;;;;;;;;2.00;2.00;;;;;-143.90;77.23;73861.69;4961896;28;108510;-76